Portada
METAR-TAF:

METAR-TAF

Aeropuertos :

Aeropuerto Internacional de El Cairo

El Cairo, Egipto

latitud: 30-08N, longitud: 031-24E, altitud: 64 m

Observación

El informe se hizo hace 39 minutos, a las 21:30 UTC
Viento 5 kt del este-noreste
Temperatura 20°C
Humedad 78%
Presión 1020 hPa
Visibilidad: 6000 m

METAR: HECA 202130Z 07005KT 6000 NSC 20/16 Q1020 NOSIG

Hora: 00:09 (22:09 UTC)

Pronóstico

El informe se hizo hace 5 horas y 9 minutos, a las 17:00 UTC
Pronóstico válido del 20 a las 18 UTC al 21 a las 24 UTC
Viento 9 kt del norte-noreste
Visibilidad 10 km o más
Escasas nubes a una altura de 2500 ft
Temporalmente
del 21 a las 00 UTC al 21 a las 06 UTC
Viento 3 kt con dirección variable
Visibilidad: 6000 m

TAF: HECA 201700Z 2018/2124 03009KT 9999 FEW025 TEMPO 2100/2106 VRB03KT 6000 NSC

Observaciones y pronósticos meteorológicos de más de 4000 aeropuertos (mensajes METAR y TAF).

Los puntos amarillos y rojos representan las estaciones disponibles.

Ponga el ratón en el punto deseado para ver el nombre de la estación.

Haga clic para ver las observaciones y los pronósticos meteorológicos.

Para cambiar el mapa : haga clic en los botones verdes con una cruz de color negro para hacer un zoom, en el botón verde con un guión para alejar o en las flechas verdes para mapas adyacentes.


METAR-TAF: